Terminal Aerodrome Forecast
Issued by NWS Jackson, KY

Home | Current Version | Previous Version | Text Only | Print | Product List | Glossary On
Versions: 1 2 3 4 5 6 7 8 9 10 11 12 13 14 15 16 17 18
000
FTUS43 KJKL 231700 RRA
TAFJKL
TAF
KJKL 231742Z 2318/2418 25004KT P6SM SCT030 SCT050
     FM232130 26004KT 5SM -TSRA BKN025CB OVC050
     FM240000 29003KT 6SM BR VCTS SCT020CB BKN030
     FM240500 VRB03KT 3SM BR VCSH BKN015 OVC020
     FM241500 34006KT P6SM SCT050=

USA.gov is the U.S. government's official web portal to all federal, state and local government web resources and services.